Time;durP1;ratioP1;P1;durP2;ratioP2;P2;SDS_P1;SDS_P2;PMS_P1;PMS_P2;Temp;Humidity;BMP_temperature;BMP_pressure;BME280_temperature;BME280_humidity;BME280_pressure;Samples;Min_cycle;Max_cycle;Signal;HPM_P1;HPM_P2
2021/10/31 00:00:10;;;;;;;1.63;1.20;;;9.60;99.90;;;;;;2081565;28;20645;-66
2021/10/31 00:01:12;;;;;;;1.45;1.15;;;9.60;99.90;;;;;;2081578;28;20173;-67
2021/10/31 00:02:12;;;;;;;1.33;1.08;;;9.60;99.90;;;;;;2081586;28;20181;-67
2021/10/31 00:03:16;;;;;;;1.07;0.97;;;9.60;99.90;;;;;;2081709;28;20307;-67
2021/10/31 00:04:17;;;;;;;1.73;1.30;;;9.60;99.70;;;;;;2081731;28;20356;-67
2021/10/31 00:05:18;;;;;;;1.67;1.10;;;9.60;99.70;;;;;;2081697;28;20188;-67
2021/10/31 00:06:20;;;;;;;2.13;1.20;;;9.50;99.60;;;;;;2081632;28;20243;-67
2021/10/31 00:07:21;;;;;;;1.88;1.20;;;9.50;99.70;;;;;;2081630;28;20251;-67
2021/10/31 00:08:21;;;;;;;1.40;1.00;;;9.50;99.60;;;;;;2081613;28;20651;-67
2021/10/31 00:09:22;;;;;;;1.20;1.10;;;9.50;99.60;;;;;;2081729;28;20201;-67
2021/10/31 00:10:23;;;;;;;1.43;1.10;;;9.50;99.60;;;;;;2081557;28;20223;-67
2021/10/31 00:11:23;;;;;;;1.20;1.10;;;9.40;99.60;;;;;;2081378;28;20188;-67
2021/10/31 00:12:24;;;;;;;1.10;1.00;;;9.40;99.60;;;;;;2081451;28;20191;-67
2021/10/31 00:13:25;;;;;;;0.90;0.90;;;9.40;99.60;;;;;;2081723;28;20513;-67
2021/10/31 00:14:26;;;;;;;1.30;1.00;;;9.30;99.60;;;;;;2081634;28;20274;-67
2021/10/31 00:15:27;;;;;;;1.10;0.80;;;9.30;99.70;;;;;;2081589;28;20600;-67
2021/10/31 00:16:28;;;;;;;1.27;1.00;;;9.30;99.90;;;;;;2081544;28;20230;-67
2021/10/31 00:17:29;;;;;;;2.77;0.90;;;9.30;99.90;;;;;;2081648;28;20208;-67
2021/10/31 00:18:29;;;;;;;1.30;1.20;;;9.20;99.90;;;;;;2088985;28;20191;-67
2021/10/31 00:19:30;;;;;;;1.37;1.10;;;9.20;99.90;;;;;;2089251;28;20180;-67
2021/10/31 00:20:31;;;;;;;1.10;1.00;;;9.10;99.90;;;;;;2081393;28;20211;-67
2021/10/31 00:21:33;;;;;;;1.20;1.10;;;9.10;99.80;;;;;;2081285;28;20179;-67
2021/10/31 00:22:34;;;;;;;1.38;1.10;;;9.00;99.90;;;;;;2081555;28;20471;-67
2021/10/31 00:23:35;;;;;;;1.43;1.10;;;9.00;99.90;;;;;;2081507;28;20223;-66
2021/10/31 00:24:35;;;;;;;2.27;1.30;;;9.00;99.90;;;;;;2081600;28;20184;-67
2021/10/31 00:25:36;;;;;;;1.63;1.17;;;8.90;99.90;;;;;;2081599;28;20172;-67
2021/10/31 00:26:37;;;;;;;1.40;1.03;;;8.80;99.90;;;;;;2081378;28;20234;-67
2021/10/31 00:27:38;;;;;;;2.83;1.30;;;8.80;99.90;;;;;;2081584;28;20211;-67
2021/10/31 00:28:39;;;;;;;1.67;1.30;;;8.80;99.90;;;;;;2081423;28;20176;-67
2021/10/31 00:29:39;;;;;;;1.10;1.00;;;8.80;99.90;;;;;;2081550;28;20180;-67
2021/10/31 00:30:40;;;;;;;1.20;0.93;;;8.70;99.80;;;;;;2081342;28;20182;-67
2021/10/31 00:31:41;;;;;;;1.33;1.07;;;8.70;99.80;;;;;;2081232;28;20209;-66
2021/10/31 00:32:42;;;;;;;1.35;1.10;;;8.60;99.90;;;;;;2081424;28;20718;-67
2021/10/31 00:33:43;;;;;;;1.47;0.97;;;8.60;99.90;;;;;;2081496;28;20228;-67
2021/10/31 00:34:43;;;;;;;2.20;1.30;;;8.50;99.90;;;;;;2081559;28;20194;-66
2021/10/31 00:35:44;;;;;;;2.40;1.30;;;8.50;99.90;;;;;;2081434;28;20184;-67
2021/10/31 00:36:45;;;;;;;1.60;1.50;;;8.40;99.90;;;;;;2081513;28;20206;-67
2021/10/31 00:37:46;;;;;;;1.83;1.33;;;8.30;99.90;;;;;;2081432;28;20189;-67
2021/10/31 00:38:46;;;;;;;1.40;1.20;;;8.20;99.90;;;;;;2081415;28;20179;-67
2021/10/31 00:39:47;;;;;;;1.60;1.23;;;8.20;99.90;;;;;;2081326;28;20180;-66
2021/10/31 00:40:48;;;;;;;1.90;1.60;;;8.10;99.90;;;;;;2081297;28;20209;-67
2021/10/31 00:41:49;;;;;;;3.40;1.73;;;8.10;99.90;;;;;;2081160;28;20188;-67
2021/10/31 00:42:50;;;;;;;2.73;1.60;;;8.10;99.90;;;;;;2081457;28;20312;-66
2021/10/31 00:43:51;;;;;;;3.73;2.17;;;8.00;99.90;;;;;;2081361;28;20584;-66
2021/10/31 00:44:51;;;;;;;2.60;1.90;;;8.00;99.90;;;;;;2081263;28;20266;-67
2021/10/31 00:45:52;;;;;;;2.27;2.00;;;8.00;99.90;;;;;;2081365;28;20688;-66
2021/10/31 00:46:53;;;;;;;2.83;1.80;;;8.00;99.90;;;;;;2081329;28;20176;-66
2021/10/31 00:47:54;;;;;;;3.10;1.80;;;8.00;99.90;;;;;;2081425;28;20262;-67
2021/10/31 00:48:55;;;;;;;2.08;1.60;;;7.90;99.90;;;;;;2081335;28;20604;-66
2021/10/31 00:49:56;;;;;;;2.37;1.53;;;7.90;99.90;;;;;;2080892;28;20182;-66
2021/10/31 00:50:57;;;;;;;4.30;1.60;;;8.00;99.90;;;;;;2081392;28;20247;-67
2021/10/31 00:52:00;;;;;;;2.67;1.70;;;8.00;99.90;;;;;;2080533;28;20189;-67
2021/10/31 00:53:02;;;;;;;4.45;1.77;;;8.00;99.90;;;;;;2080899;28;20216;-67
2021/10/31 00:54:03;;;;;;;2.42;1.83;;;8.10;99.90;;;;;;2081343;28;20185;-66
2021/10/31 00:55:05;;;;;;;2.45;2.10;;;8.10;99.90;;;;;;2081300;28;20622;-67
2021/10/31 00:56:06;;;;;;;2.90;2.20;;;8.20;99.90;;;;;;2081267;28;20575;-66
2021/10/31 00:57:07;;;;;;;2.63;2.07;;;8.20;99.90;;;;;;2081324;28;20210;-67
2021/10/31 00:58:12;;;;;;;3.45;2.40;;;8.20;99.90;;;;;;2081306;28;20187;-66
2021/10/31 00:59:12;;;;;;;2.95;2.10;;;8.30;99.90;;;;;;2081329;28;20575;-67
2021/10/31 01:00:14;;;;;;;3.33;2.03;;;8.30;99.90;;;;;;2081155;28;20182;-67
2021/10/31 01:01:15;;;;;;;2.50;2.17;;;8.30;99.90;;;;;;2081084;28;20192;-66
2021/10/31 01:02:16;;;;;;;3.13;2.30;;;8.20;99.90;;;;;;2081305;28;20603;-66
2021/10/31 01:03:17;;;;;;;2.55;2.15;;;8.20;99.90;;;;;;2081328;28;20176;-67
2021/10/31 01:04:23;;;;;;;2.92;2.63;;;8.20;99.90;;;;;;2081150;28;20190;-67
2021/10/31 01:05:32;;;;;;;6.10;2.63;;;8.20;99.90;;;;;;2081381;28;20168;-67
2021/10/31 01:06:44;;;;;;;5.68;2.42;;;8.20;99.90;;;;;;2080679;28;20160;-66
2021/10/31 01:08:29;;;;;;;4.00;2.45;;;8.20;99.90;;;;;;2080771;28;20221;-67
2021/10/31 01:09:57;;;;;;;4.75;2.53;;;8.10;99.90;;;;;;2081195;28;20185;-67
2021/10/31 01:11:10;;;;;;;3.72;2.95;;;8.10;99.90;;;;;;2081186;28;20173;-67
2021/10/31 01:12:41;;;;;;;5.32;2.85;;;8.10;99.90;;;;;;2080469;28;20203;-67
2021/10/31 01:14:35;;;;;;;4.07;2.90;;;8.10;99.90;;;;;;2080935;28;20190;-66
2021/10/31 01:16:29;;;;;;;2.80;2.47;;;8.10;99.90;;;;;;2063766;28;20714;-67
2021/10/31 01:18:26;;;;;;;2.85;2.28;;;8.00;99.90;;;;;;2070659;28;20288;-67
2021/10/31 01:20:05;;;;;;;2.55;2.28;;;8.00;99.90;;;;;;2049261;28;20199;-67
2021/10/31 01:21:28;;;;;;;5.13;2.88;;;8.00;99.90;;;;;;2071912;28;20236;-67
2021/10/31 01:22:54;;;;;;;3.83;2.70;;;7.90;99.90;;;;;;2072960;28;20257;-67
2021/10/31 01:24:21;;;;;;;3.22;2.38;;;7.90;99.90;;;;;;2073063;28;20577;-67
2021/10/31 01:25:47;;;;;;;3.38;2.42;;;7.90;99.90;;;;;;2072797;28;20232;-67
2021/10/31 01:26:54;;;;;;;2.92;2.60;;;7.90;99.90;;;;;;2072343;28;20190;-66
2021/10/31 01:28:14;;;;;;;5.30;3.25;;;7.90;99.90;;;;;;2072427;28;20676;-66
2021/10/31 01:29:48;;;;;;;4.30;3.45;;;7.90;99.90;;;;;;2072908;28;20276;-66
2021/10/31 01:31:28;;;;;;;3.67;2.70;;;7.80;99.90;;;;;;2072309;28;20173;-67
2021/10/31 01:33:07;;;;;;;3.92;3.35;;;7.80;99.90;;;;;;2072750;28;20567;-66
2021/10/31 01:34:29;;;;;;;5.43;2.88;;;7.80;99.90;;;;;;2073050;28;20182;-66
2021/10/31 01:35:57;;;;;;;4.05;2.90;;;7.70;99.90;;;;;;2072319;28;20267;-66
2021/10/31 01:37:09;;;;;;;3.67;2.72;;;7.60;99.90;;;;;;2067894;28;20240;-66
2021/10/31 01:38:34;;;;;;;4.18;2.70;;;7.50;99.90;;;;;;2072469;28;20257;-66
2021/10/31 01:39:41;;;;;;;2.67;2.20;;;7.50;99.90;;;;;;2072920;28;20177;-67
2021/10/31 01:40:46;;;;;;;3.90;2.63;;;7.40;99.90;;;;;;2072287;28;20194;-67
2021/10/31 01:41:56;;;;;;;3.25;2.40;;;7.40;99.90;;;;;;2072092;28;20622;-67
2021/10/31 01:43:09;;;;;;;3.30;2.28;;;7.30;99.90;;;;;;2073083;28;20174;-67
2021/10/31 01:44:36;;;;;;;3.95;2.22;;;7.30;99.90;;;;;;2072775;28;20262;-68
2021/10/31 01:45:52;;;;;;;3.53;2.40;;;7.30;99.90;;;;;;2072264;28;20189;-68
2021/10/31 01:47:04;;;;;;;2.65;2.20;;;7.20;99.90;;;;;;2072418;28;20209;-67
2021/10/31 01:48:24;;;;;;;2.13;1.92;;;7.30;99.90;;;;;;2072983;28;20193;-67
2021/10/31 01:49:43;;;;;;;3.58;2.40;;;7.20;99.90;;;;;;2072144;28;20264;-67
2021/10/31 01:50:47;;;;;;;2.90;2.20;;;7.20;99.90;;;;;;2074797;28;20653;-67
2021/10/31 01:52:04;;;;;;;4.00;2.20;;;7.20;99.90;;;;;;2072108;28;20190;-67
2021/10/31 01:53:10;;;;;;;3.00;2.35;;;7.20;99.90;;;;;;2074420;28;20675;-67
2021/10/31 01:54:19;;;;;;;5.82;2.42;;;7.20;99.90;;;;;;2079576;28;20557;-67
2021/10/31 01:55:25;;;;;;;3.15;2.40;;;7.30;99.90;;;;;;2072329;28;20269;-67
2021/10/31 01:56:28;;;;;;;3.38;2.33;;;7.20;99.90;;;;;;2072885;28;20264;-67
2021/10/31 01:57:30;;;;;;;3.70;2.33;;;7.20;99.90;;;;;;2072158;28;20204;-67
2021/10/31 01:58:38;;;;;;;4.03;2.67;;;7.30;99.90;;;;;;2072394;28;20182;-67
2021/10/31 01:59:46;;;;;;;4.35;2.72;;;7.20;99.90;;;;;;2072298;28;20171;-67
2021/10/31 02:00:50;;;;;;;6.18;3.10;;;7.20;99.90;;;;;;2064896;28;20213;-67
2021/10/31 02:01:51;;;;;;;3.80;2.75;;;7.30;99.90;;;;;;2064902;28;20178;-66
2021/10/31 02:02:52;;;;;;;4.38;3.20;;;7.30;99.90;;;;;;2079959;28;20240;-67
2021/10/31 02:03:54;;;;;;;4.15;2.78;;;7.30;99.90;;;;;;2082073;28;20188;-67
2021/10/31 02:04:56;;;;;;;6.20;3.10;;;7.30;99.90;;;;;;2082705;28;20178;-67
2021/10/31 02:06:00;;;;;;;4.43;3.05;;;7.20;99.90;;;;;;2081971;28;20189;-67
2021/10/31 02:07:02;;;;;;;3.75;2.80;;;7.20;99.90;;;;;;2081900;28;20668;-65
2021/10/31 02:08:07;;;;;;;6.70;3.20;;;7.20;99.90;;;;;;2081920;28;20193;-67
2021/10/31 02:09:08;;;;;;;5.85;3.40;;;7.20;99.90;;;;;;2081924;28;20181;-66
2021/10/31 02:10:10;;;;;;;4.15;3.05;;;7.20;99.90;;;;;;2082458;28;20671;-68
2021/10/31 02:11:11;;;;;;;5.47;3.60;;;7.10;99.90;;;;;;2081547;28;20189;-67
2021/10/31 02:12:16;;;;;;;7.38;3.42;;;7.10;99.90;;;;;;2081923;28;20737;-66
2021/10/31 02:13:17;;;;;;;6.93;2.83;;;7.10;99.90;;;;;;2081922;28;20185;-67
2021/10/31 02:14:20;;;;;;;4.20;3.38;;;7.10;99.90;;;;;;2082072;28;20185;-67
2021/10/31 02:15:22;;;;;;;4.75;3.20;;;7.00;99.90;;;;;;2081862;28;20173;-67
2021/10/31 02:16:25;;;;;;;4.45;3.17;;;7.00;99.90;;;;;;2081919;28;20181;-67
2021/10/31 02:17:28;;;;;;;4.53;2.78;;;7.00;99.90;;;;;;2081832;28;20233;-67
2021/10/31 02:18:29;;;;;;;3.70;2.70;;;7.00;99.90;;;;;;2081973;28;20279;-67
2021/10/31 02:19:39;;;;;;;3.92;2.70;;;7.00;99.90;;;;;;2082460;28;20180;-67
2021/10/31 02:20:42;;;;;;;3.05;2.35;;;7.00;99.90;;;;;;2082555;28;20197;-67
2021/10/31 02:21:45;;;;;;;3.13;2.42;;;7.00;99.90;;;;;;2082190;28;20208;-67
2021/10/31 02:22:56;;;;;;;3.17;2.30;;;6.90;99.90;;;;;;2081829;28;20193;-67
2021/10/31 02:23:58;;;;;;;2.53;1.95;;;6.90;99.90;;;;;;2074952;28;20209;-67
2021/10/31 02:25:04;;;;;;;4.57;2.55;;;6.90;99.90;;;;;;2082003;28;20235;-67
2021/10/31 02:26:05;;;;;;;3.95;3.00;;;6.90;99.90;;;;;;2082449;28;20181;-67
2021/10/31 02:27:22;;;;;;;4.07;2.80;;;6.90;99.90;;;;;;2082338;28;20288;-67
2021/10/31 02:28:23;;;;;;;4.72;3.05;;;6.90;99.90;;;;;;2082473;28;20175;-67
2021/10/31 02:29:24;;;;;;;3.83;3.00;;;6.90;99.90;;;;;;2082345;28;20562;-66
2021/10/31 02:30:25;;;;;;;4.07;2.93;;;6.90;99.90;;;;;;2082438;28;20193;-67
2021/10/31 02:31:28;;;;;;;5.68;4.03;;;6.90;99.90;;;;;;2082237;28;20189;-66
2021/10/31 02:32:31;;;;;;;4.65;3.70;;;6.90;99.90;;;;;;2082480;28;20445;-66
2021/10/31 02:33:32;;;;;;;4.55;3.30;;;7.00;99.90;;;;;;2082427;28;20208;-67
2021/10/31 02:34:33;;;;;;;3.27;2.90;;;7.00;99.90;;;;;;2082462;28;20228;-67
2021/10/31 02:35:33;;;;;;;3.87;2.73;;;6.90;99.90;;;;;;2082372;28;20283;-66
2021/10/31 02:36:35;;;;;;;3.33;2.60;;;7.00;99.90;;;;;;2082461;28;20224;-67
2021/10/31 02:37:37;;;;;;;5.80;3.38;;;6.90;99.90;;;;;;2082226;28;20177;-67
2021/10/31 02:38:38;;;;;;;4.03;3.08;;;6.90;99.90;;;;;;2082326;28;20664;-67
2021/10/31 02:39:38;;;;;;;5.50;3.50;;;6.90;99.90;;;;;;2082258;28;20208;-67
2021/10/31 02:40:39;;;;;;;5.07;3.50;;;6.90;99.90;;;;;;2082395;28;20204;-67
2021/10/31 02:41:40;;;;;;;4.23;3.10;;;6.90;99.90;;;;;;2082184;28;20207;-67
2021/10/31 02:42:41;;;;;;;6.00;3.73;;;6.80;99.90;;;;;;2082353;28;20205;-67
2021/10/31 02:43:42;;;;;;;4.90;3.60;;;6.80;99.90;;;;;;2082435;28;20239;-67
2021/10/31 02:44:43;;;;;;;6.27;4.10;;;6.80;99.90;;;;;;2082366;28;20743;-67
2021/10/31 02:45:44;;;;;;;7.45;3.97;;;6.70;99.90;;;;;;2082410;28;20170;-67
2021/10/31 02:46:45;;;;;;;5.13;3.73;;;6.70;99.90;;;;;;2082199;28;20212;-67
2021/10/31 02:47:55;;;;;;;6.15;4.55;;;6.70;99.90;;;;;;2082397;28;20191;-67
2021/10/31 02:48:56;;;;;;;6.60;4.00;;;6.70;99.90;;;;;;2082189;28;20177;-68
2021/10/31 02:49:59;;;;;;;7.38;4.25;;;6.60;99.90;;;;;;2082223;28;20188;-67
2021/10/31 02:51:30;;;;;;;6.07;3.25;;;6.60;99.90;;;;;;2082156;28;20629;-67
2021/10/31 02:52:48;;;;;;;4.30;3.50;;;6.60;99.90;;;;;;2081619;28;20216;-67
2021/10/31 02:53:58;;;;;;;4.35;3.40;;;6.60;99.90;;;;;;2081896;28;20202;-67
2021/10/31 02:55:57;;;;;;;5.93;3.85;;;6.50;99.90;;;;;;2081683;28;20185;-67
2021/10/31 02:57:14;;;;;;;5.55;3.92;;;6.50;99.90;;;;;;2048485;28;20241;-67
2021/10/31 02:58:21;;;;;;;4.57;3.35;;;6.60;99.90;;;;;;2072698;28;20200;-67
2021/10/31 02:59:34;;;;;;;5.40;3.72;;;6.50;99.90;;;;;;2074188;28;20188;-67
2021/10/31 03:00:38;;;;;;;7.15;4.35;;;6.60;99.90;;;;;;2075071;28;20244;-67
2021/10/31 03:01:40;;;;;;;8.18;4.60;;;6.50;99.90;;;;;;2081524;28;20184;-66
2021/10/31 03:02:43;;;;;;;6.10;4.35;;;6.50;99.90;;;;;;2081665;28;20181;-67
2021/10/31 03:03:45;;;;;;;4.68;3.72;;;6.50;99.90;;;;;;2081656;28;20181;-67
2021/10/31 03:04:47;;;;;;;5.97;4.00;;;6.50;99.90;;;;;;2081605;28;20185;-67
2021/10/31 03:05:57;;;;;;;5.20;3.90;;;6.50;99.90;;;;;;2073737;28;20181;-67
2021/10/31 03:06:58;;;;;;;5.80;3.72;;;6.50;99.90;;;;;;2081714;28;20262;-67
2021/10/31 03:07:59;;;;;;;4.10;3.50;;;6.50;99.90;;;;;;2082277;28;20250;-67
2021/10/31 03:09:00;;;;;;;5.20;3.53;;;6.50;99.90;;;;;;2082157;28;20252;-67
2021/10/31 03:10:01;;;;;;;4.40;3.57;;;6.60;99.90;;;;;;2082070;28;20177;-67
2021/10/31 03:11:08;;;;;;;5.67;4.10;;;6.60;99.90;;;;;;2082050;28;20193;-67
2021/10/31 03:12:09;;;;;;;5.22;3.72;;;6.60;99.90;;;;;;2082292;28;20180;-66
2021/10/31 03:13:10;;;;;;;6.40;4.22;;;6.60;99.90;;;;;;2082177;28;20393;-67
2021/10/31 03:14:11;;;;;;;4.43;3.70;;;6.60;99.90;;;;;;2082172;28;20212;-67
2021/10/31 03:15:11;;;;;;;7.47;5.10;;;6.60;99.90;;;;;;2082082;28;20235;-67
2021/10/31 03:16:12;;;;;;;6.23;4.67;;;6.60;99.90;;;;;;2082131;28;20554;-67
2021/10/31 03:17:14;;;;;;;7.23;4.83;;;6.60;99.90;;;;;;2082144;28;20208;-67
2021/10/31 03:18:14;;;;;;;5.95;4.97;;;6.60;99.90;;;;;;2082256;28;20195;-67
2021/10/31 03:19:15;;;;;;;9.50;4.50;;;6.60;99.90;;;;;;2082198;28;20264;-66
2021/10/31 03:20:16;;;;;;;9.07;4.40;;;6.60;99.90;;;;;;2081846;28;20542;-67
2021/10/31 03:21:17;;;;;;;6.60;4.47;;;6.60;99.90;;;;;;2081618;28;20187;-66
2021/10/31 03:22:17;;;;;;;6.63;4.30;;;6.70;99.90;;;;;;2082117;28;20563;-67
2021/10/31 03:23:18;;;;;;;5.33;3.93;;;6.70;99.90;;;;;;2082239;28;20178;-67
2021/10/31 03:24:20;;;;;;;8.03;4.20;;;6.70;99.90;;;;;;2081977;28;20594;-67
2021/10/31 03:25:20;;;;;;;4.75;3.50;;;6.70;99.90;;;;;;2082337;28;20188;-67
2021/10/31 03:26:21;;;;;;;6.70;4.33;;;6.70;99.90;;;;;;2081950;28;20185;-67
2021/10/31 03:27:22;;;;;;;5.67;4.20;;;6.70;99.90;;;;;;2082148;28;20235;-67
2021/10/31 03:28:22;;;;;;;6.80;4.80;;;6.70;99.90;;;;;;2082042;28;20173;-67
2021/10/31 03:29:24;;;;;;;7.93;4.87;;;6.70;99.90;;;;;;2082038;28;20181;-68
2021/10/31 03:30:25;;;;;;;8.18;5.20;;;6.70;99.90;;;;;;2081869;28;20185;-67
2021/10/31 03:31:26;;;;;;;8.83;5.37;;;6.70;99.90;;;;;;2081782;28;20660;-67
2021/10/31 03:32:27;;;;;;;8.70;5.67;;;6.70;99.90;;;;;;2081926;28;20415;-67
2021/10/31 03:33:28;;;;;;;5.93;4.37;;;6.80;99.90;;;;;;2082144;28;20185;-67
2021/10/31 03:34:28;;;;;;;6.30;4.60;;;6.80;99.90;;;;;;2081947;28;20239;-67
2021/10/31 03:35:30;;;;;;;6.33;4.40;;;6.70;99.90;;;;;;2081975;28;20181;-67
2021/10/31 03:36:30;;;;;;;6.47;4.68;;;6.80;99.90;;;;;;2081885;28;20177;-67
2021/10/31 03:37:31;;;;;;;6.73;4.80;;;6.80;99.90;;;;;;2081825;28;20193;-67
2021/10/31 03:38:32;;;;;;;6.47;4.60;;;6.80;99.90;;;;;;2081997;28;20454;-66
2021/10/31 03:39:32;;;;;;;8.10;5.20;;;6.80;99.90;;;;;;2089667;28;20183;-67
2021/10/31 03:40:33;;;;;;;8.70;6.00;;;6.80;99.90;;;;;;2089429;28;20212;-66
2021/10/31 03:41:35;;;;;;;5.37;4.27;;;6.90;99.90;;;;;;2081790;28;20204;-67
2021/10/31 03:42:37;;;;;;;6.18;4.15;;;6.90;99.90;;;;;;2081764;28;20990;-67
2021/10/31 03:43:38;;;;;;;5.03;4.00;;;6.90;99.90;;;;;;2081915;28;20684;-67
2021/10/31 03:44:48;;;;;;;5.60;4.10;;;6.90;99.90;;;;;;2081956;28;20178;-67
2021/10/31 03:45:51;;;;;;;4.90;3.72;;;6.90;99.90;;;;;;2082098;28;20161;-67
2021/10/31 03:46:52;;;;;;;6.13;4.47;;;6.90;99.90;;;;;;2081841;28;20275;-67
2021/10/31 03:47:52;;;;;;;5.82;4.32;;;6.90;99.90;;;;;;2081808;28;20188;-67
2021/10/31 03:48:53;;;;;;;6.13;4.03;;;7.00;99.90;;;;;;2081937;28;20232;-67
2021/10/31 03:49:54;;;;;;;5.77;4.03;;;7.00;99.90;;;;;;2081889;28;20244;-67
2021/10/31 03:50:55;;;;;;;5.68;3.88;;;7.10;99.90;;;;;;2081900;28;20671;-68
2021/10/31 03:51:57;;;;;;;7.10;4.17;;;7.10;99.90;;;;;;2078670;28;20188;-67
2021/10/31 03:52:58;;;;;;;5.07;4.30;;;7.10;99.90;;;;;;2075921;28;20188;-67
2021/10/31 03:53:58;;;;;;;5.47;4.15;;;7.10;99.90;;;;;;2081652;28;20190;-67
2021/10/31 03:54:59;;;;;;;5.80;4.27;;;7.20;99.90;;;;;;2081791;28;20187;-67
2021/10/31 03:56:01;;;;;;;7.37;3.83;;;7.20;99.90;;;;;;2081892;28;20644;-67
2021/10/31 03:57:02;;;;;;;4.35;3.10;;;7.20;99.90;;;;;;2081891;28;20233;-67
2021/10/31 03:58:03;;;;;;;5.25;3.30;;;7.20;99.90;;;;;;2081737;28;20189;-67
2021/10/31 03:59:03;;;;;;;4.37;3.20;;;7.20;99.90;;;;;;2080492;28;20728;-67
2021/10/31 04:00:10;;;;;;;3.60;3.03;;;7.20;99.90;;;;;;2081879;28;20269;-67
2021/10/31 04:01:11;;;;;;;5.00;3.40;;;7.30;99.90;;;;;;2081445;28;20206;-67
2021/10/31 04:02:11;;;;;;;4.23;3.13;;;7.30;99.90;;;;;;2081826;28;20260;-67
2021/10/31 04:03:12;;;;;;;6.07;3.53;;;7.30;99.90;;;;;;2081850;28;20672;-67
2021/10/31 04:04:13;;;;;;;4.93;3.40;;;7.30;99.90;;;;;;2081762;28;20180;-67
2021/10/31 04:05:14;;;;;;;6.55;3.50;;;7.30;99.90;;;;;;2081821;28;20181;-67
2021/10/31 04:06:15;;;;;;;3.47;2.80;;;7.30;99.90;;;;;;2081873;28;20208;-67
2021/10/31 04:07:16;;;;;;;5.10;3.10;;;7.30;99.90;;;;;;2081657;28;20560;-67
2021/10/31 04:08:16;;;;;;;4.57;3.47;;;7.40;99.90;;;;;;2081680;28;20182;-67
2021/10/31 04:09:17;;;;;;;6.83;2.73;;;7.30;99.90;;;;;;2081639;28;20406;-67
2021/10/31 04:10:17;;;;;;;4.53;2.97;;;7.40;99.90;;;;;;2081730;28;20177;-67
2021/10/31 04:11:18;;;;;;;3.80;3.00;;;7.40;99.90;;;;;;2081426;28;20180;-67
2021/10/31 04:12:19;;;;;;;2.93;2.63;;;7.40;99.90;;;;;;2081731;28;20243;-67
2021/10/31 04:13:20;;;;;;;3.60;2.70;;;7.40;99.90;;;;;;2081599;28;20273;-67
2021/10/31 04:14:21;;;;;;;3.27;2.60;;;7.50;99.90;;;;;;2081738;28;20175;-67
2021/10/31 04:15:23;;;;;;;3.40;2.90;;;7.50;99.90;;;;;;2081646;28;20177;-67
2021/10/31 04:16:23;;;;;;;4.45;2.92;;;7.50;99.90;;;;;;2081696;28;20192;-67
2021/10/31 04:17:24;;;;;;;4.23;2.80;;;7.50;99.90;;;;;;2081590;28;20204;-67
2021/10/31 04:18:25;;;;;;;5.03;3.08;;;7.60;99.90;;;;;;2081697;28;20177;-67
2021/10/31 04:19:26;;;;;;;3.67;2.80;;;7.60;99.90;;;;;;2081555;28;20186;-67
2021/10/31 04:20:27;;;;;;;3.87;3.20;;;7.60;99.90;;;;;;2081438;28;20169;-68
2021/10/31 04:21:27;;;;;;;4.53;3.10;;;7.60;99.90;;;;;;2081473;28;20519;-67
2021/10/31 04:22:29;;;;;;;6.67;4.50;;;7.60;99.90;;;;;;2081755;28;20242;-67
2021/10/31 04:23:30;;;;;;;7.43;4.93;;;7.60;99.90;;;;;;2081644;28;20186;-67
2021/10/31 04:24:31;;;;;;;9.32;6.00;;;7.70;99.90;;;;;;2081183;28;20184;-67
2021/10/31 04:25:32;;;;;;;8.40;5.63;;;7.70;99.90;;;;;;2080831;28;20188;-67
2021/10/31 04:26:33;;;;;;;7.37;5.40;;;7.80;99.90;;;;;;2081034;28;20174;-67
2021/10/31 04:27:34;;;;;;;6.60;4.93;;;7.80;99.90;;;;;;2081457;28;20204;-67
2021/10/31 04:28:34;;;;;;;6.18;5.20;;;7.80;99.90;;;;;;2081629;28;20177;-67
2021/10/31 04:29:35;;;;;;;5.73;4.50;;;7.80;99.90;;;;;;2081615;28;20211;-67
2021/10/31 04:30:36;;;;;;;5.40;4.13;;;7.70;99.90;;;;;;2081614;28;20555;-67
2021/10/31 04:31:37;;;;;;;4.67;3.50;;;7.70;99.90;;;;;;2081197;28;20427;-66
2021/10/31 04:32:37;;;;;;;6.10;4.10;;;7.70;99.90;;;;;;2081623;28;20660;-67
2021/10/31 04:33:38;;;;;;;4.57;3.73;;;7.70;99.90;;;;;;2081558;28;20193;-67
2021/10/31 04:34:39;;;;;;;4.63;3.50;;;7.70;99.90;;;;;;2081575;28;20181;-67
2021/10/31 04:35:40;;;;;;;4.53;3.20;;;7.70;99.90;;;;;;2081535;28;20275;-67
2021/10/31 04:36:40;;;;;;;8.47;3.50;;;7.70;99.90;;;;;;2081405;28;20177;-67
2021/10/31 04:37:44;;;;;;;6.43;3.43;;;7.70;99.90;;;;;;2081585;28;20190;-67
2021/10/31 04:38:49;;;;;;;4.80;3.38;;;7.70;99.90;;;;;;2081557;28;20656;-67
2021/10/31 04:39:50;;;;;;;7.00;3.00;;;7.80;99.90;;;;;;2081510;28;20183;-67
2021/10/31 04:40:51;;;;;;;7.13;3.33;;;7.70;99.90;;;;;;2081414;28;20213;-67
2021/10/31 04:41:52;;;;;;;3.80;2.90;;;7.70;99.90;;;;;;2081293;28;20185;-67
2021/10/31 04:42:53;;;;;;;6.20;3.08;;;7.70;99.90;;;;;;2081596;28;20628;-67
2021/10/31 04:43:54;;;;;;;3.30;2.53;;;7.70;99.90;;;;;;2081436;28;20251;-67
2021/10/31 04:44:55;;;;;;;5.93;2.60;;;7.70;99.90;;;;;;2081624;28;20189;-67
2021/10/31 04:45:56;;;;;;;4.07;2.90;;;7.70;99.90;;;;;;2081519;28;20911;-67
2021/10/31 04:46:58;;;;;;;5.13;3.50;;;7.70;99.90;;;;;;2081445;28;20691;-67
2021/10/31 04:47:59;;;;;;;6.45;3.25;;;7.80;99.90;;;;;;2081432;28;20186;-67
2021/10/31 04:48:59;;;;;;;4.63;3.10;;;7.70;99.90;;;;;;2081336;28;20188;-67
2021/10/31 04:50:00;;;;;;;6.67;3.60;;;7.80;99.90;;;;;;2081293;28;20189;-67
2021/10/31 04:51:01;;;;;;;4.80;3.13;;;7.80;99.90;;;;;;2081207;28;20657;-66
2021/10/31 04:52:04;;;;;;;8.47;3.93;;;7.70;99.90;;;;;;2081284;28;20192;-67
2021/10/31 04:53:07;;;;;;;5.47;3.40;;;7.70;99.90;;;;;;2081112;28;20260;-66
2021/10/31 04:54:08;;;;;;;5.35;3.33;;;7.70;99.90;;;;;;2081491;28;20259;-67
2021/10/31 04:55:11;;;;;;;5.97;3.20;;;7.70;99.90;;;;;;2081302;28;20198;-67
2021/10/31 04:56:12;;;;;;;5.38;3.47;;;7.70;99.90;;;;;;2081588;28;20228;-67
2021/10/31 04:57:12;;;;;;;4.03;3.03;;;7.70;99.90;;;;;;2081281;28;20196;-67
2021/10/31 04:58:13;;;;;;;5.57;3.77;;;7.70;99.90;;;;;;2081293;28;20271;-67
2021/10/31 04:59:15;;;;;;;6.10;3.50;;;7.70;99.90;;;;;;2081256;28;20187;-67
2021/10/31 05:00:16;;;;;;;5.30;3.03;;;7.70;99.90;;;;;;2081287;28;20436;-67
2021/10/31 05:01:17;;;;;;;5.10;3.60;;;7.60;99.90;;;;;;2080989;28;20174;-67
2021/10/31 05:02:18;;;;;;;4.82;2.97;;;7.60;99.90;;;;;;2081493;28;20177;-67
2021/10/31 05:03:18;;;;;;;3.40;2.80;;;7.60;99.90;;;;;;2081201;28;20251;-67
2021/10/31 05:04:19;;;;;;;4.47;3.30;;;7.60;99.90;;;;;;2081324;28;20190;-68
2021/10/31 05:05:21;;;;;;;5.57;3.07;;;7.60;99.90;;;;;;2081302;28;20195;-67
2021/10/31 05:06:22;;;;;;;3.90;3.28;;;7.60;99.90;;;;;;2081304;28;20658;-67
2021/10/31 05:07:23;;;;;;;4.90;3.30;;;7.60;99.90;;;;;;2081285;28;20189;-68
2021/10/31 05:08:23;;;;;;;7.93;4.40;;;7.60;99.90;;;;;;2081346;28;20182;-67
2021/10/31 05:09:24;;;;;;;5.07;3.63;;;7.60;99.90;;;;;;2081240;28;20915;-67
2021/10/31 05:10:27;;;;;;;7.57;4.50;;;7.60;99.90;;;;;;2081345;28;20177;-66
2021/10/31 05:11:27;;;;;;;5.47;3.45;;;7.60;99.90;;;;;;2080705;28;20193;-66
2021/10/31 05:12:28;;;;;;;7.93;3.80;;;7.60;99.90;;;;;;2081420;28;20191;-67
2021/10/31 05:13:29;;;;;;;4.80;3.53;;;7.60;99.90;;;;;;2081245;28;20666;-67
2021/10/31 05:14:29;;;;;;;5.77;3.77;;;7.60;99.90;;;;;;2081224;28;20189;-67
2021/10/31 05:15:30;;;;;;;4.97;3.70;;;7.60;99.90;;;;;;2081150;28;20207;-67
2021/10/31 05:16:31;;;;;;;6.63;4.03;;;7.60;99.90;;;;;;2081261;28;20173;-67
2021/10/31 05:17:32;;;;;;;4.53;3.77;;;7.60;99.90;;;;;;2081044;28;20709;-67
2021/10/31 05:18:34;;;;;;;5.25;4.10;;;7.60;99.90;;;;;;2081199;28;20620;-67
2021/10/31 05:19:35;;;;;;;6.72;4.13;;;7.50;99.90;;;;;;2081284;28;20256;-67
2021/10/31 05:20:35;;;;;;;6.73;4.30;;;7.50;99.90;;;;;;2081176;28;20204;-67
2021/10/31 05:21:36;;;;;;;7.17;4.20;;;7.50;99.90;;;;;;2080947;28;20211;-67
2021/10/31 05:22:38;;;;;;;7.60;4.23;;;7.50;99.90;;;;;;2081371;28;20204;-67
2021/10/31 05:23:38;;;;;;;7.03;4.53;;;7.40;99.90;;;;;;2081156;28;20186;-67
2021/10/31 05:24:39;;;;;;;9.57;4.40;;;7.40;99.90;;;;;;2081266;28;20181;-67
2021/10/31 05:25:40;;;;;;;8.13;4.73;;;7.40;99.90;;;;;;2081160;28;20177;-67
2021/10/31 05:26:41;;;;;;;7.77;4.13;;;7.40;99.90;;;;;;2081177;28;20177;-67
2021/10/31 05:27:41;;;;;;;8.43;3.93;;;7.30;99.90;;;;;;2081229;28;20192;-67
2021/10/31 05:28:42;;;;;;;8.57;4.17;;;7.30;99.90;;;;;;2081184;28;20179;-67
2021/10/31 05:29:43;;;;;;;9.00;4.83;;;7.30;99.90;;;;;;2081261;28;20180;-67
2021/10/31 05:30:44;;;;;;;10.07;4.53;;;7.30;99.90;;;;;;2081189;28;20662;-67
2021/10/31 05:31:45;;;;;;;7.57;4.25;;;7.20;99.90;;;;;;2080973;28;20644;-67
2021/10/31 05:32:47;;;;;;;8.10;4.70;;;7.20;99.90;;;;;;2081139;28;20185;-67
2021/10/31 05:33:48;;;;;;;9.75;5.25;;;7.20;99.90;;;;;;2081139;28;20207;-67
2021/10/31 05:34:50;;;;;;;7.90;5.05;;;7.20;99.90;;;;;;2081183;28;20181;-67
2021/10/31 05:35:52;;;;;;;8.50;5.22;;;7.20;99.90;;;;;;2080837;28;20173;-67
2021/10/31 05:36:53;;;;;;;7.53;5.13;;;7.10;99.90;;;;;;2080416;28;20208;-67
2021/10/31 05:37:58;;;;;;;8.77;5.10;;;7.10;99.90;;;;;;2081130;28;20204;-66
2021/10/31 05:38:58;;;;;;;9.88;5.63;;;7.10;99.90;;;;;;2081104;28;20713;-67
2021/10/31 05:39:59;;;;;;;7.90;4.73;;;7.10;99.90;;;;;;2081134;28;20236;-67